Time;durP1;ratioP1;P1;durP2;ratioP2;P2;SDS_P1;SDS_P2;PMS_P1;PMS_P2;Temp;Humidity;BMP_temperature;BMP_pressure;BME280_temperature;BME280_humidity;BME280_pressure;Samples;Min_cycle;Max_cycle;Signal;HPM_P1;HPM_P2
2022/09/16 00:00:42;;;;;;;;;;;;;;;16.47;57.38;99887.63;5078428;28;1144;-52
2022/09/16 00:03:07;;;;;;;;;;;;;;;16.41;57.15;99890.41;5078587;28;1116;-52
2022/09/16 00:05:33;;;;;;;;;;;;;;;16.39;57.20;99898.09;5060438;28;1969;-53
2022/09/16 00:07:59;;;;;;;;;;;;;;;16.37;56.96;99897.59;5077396;28;1123;-54
2022/09/16 00:10:24;;;;;;;;;;;;;;;16.34;56.91;99892.72;5078132;28;1127;-54
2022/09/16 00:12:50;;;;;;;;;;;;;;;16.41;57.38;99901.41;5078525;28;1158;-53
2022/09/16 00:15:15;;;;;;;;;;;;;;;17.60;56.81;99896.91;5078194;28;1147;-52
2022/09/16 00:17:41;;;;;;;;;;;;;;;16.97;57.75;99895.44;5078255;28;2590;-54
2022/09/16 00:20:06;;;;;;;;;;;;;;;16.80;57.94;99902.22;5078095;28;1150;-52
2022/09/16 00:22:32;;;;;;;;;;;;;;;16.67;57.83;99887.31;5073380;28;1100;-53
2022/09/16 00:24:57;;;;;;;;;;;;;;;16.56;57.61;99891.31;5068751;28;1981;-52
2022/09/16 00:27:23;;;;;;;;;;;;;;;16.53;57.34;99891.91;5078134;28;1131;-50
2022/09/16 00:29:49;;;;;;;;;;;;;;;16.49;57.40;99890.88;5078243;28;1092;-52
2022/09/16 00:32:14;;;;;;;;;;;;;;;16.43;57.24;99899.16;5078235;28;1084;-53
2022/09/16 00:34:40;;;;;;;;;;;;;;;16.46;56.94;99888.72;5071528;28;934;-54
2022/09/16 00:37:08;;;;;;;;;;;;;;;16.38;57.24;99899.25;5078063;28;1182;-53
2022/09/16 00:39:34;;;;;;;;;;;;;;;16.37;57.13;99889.38;5073180;28;1115;-52
2022/09/16 00:42:00;;;;;;;;;;;;;;;16.37;56.99;99888.56;5068686;28;1163;-50
2022/09/16 00:44:44;;;;;;;;;;;;;;;16.28;56.86;99887.56;5077376;28;1901;-50
2022/09/16 00:47:10;;;;;;;;;;;;;;;16.25;56.93;99897.19;5071168;28;2325;-46
2022/09/16 00:49:36;;;;;;;;;;;;;;;16.21;57.03;99888.72;5060211;28;1155;-52
2022/09/16 00:52:02;;;;;;;;;;;;;;;16.84;57.21;99888.75;5077321;28;1127;-51
2022/09/16 00:54:27;;;;;;;;;;;;;;;17.52;57.06;99890.16;5077382;28;1190;-49
2022/09/16 00:56:54;;;;;;;;;;;;;;;16.95;57.99;99887.50;5077496;28;1155;-52
2022/09/16 00:59:21;;;;;;;;;;;;;;;16.72;57.86;99889.19;5077091;28;878;-52
2022/09/16 01:01:46;;;;;;;;;;;;;;;16.61;57.67;99894.00;5046088;28;1180;-50
2022/09/16 01:04:18;;;;;;;;;;;;;;;16.58;57.52;99894.59;5077809;28;1108;-52
2022/09/16 01:06:44;;;;;;;;;;;;;;;16.48;57.29;99884.56;5059457;28;1128;-53
2022/09/16 01:09:10;;;;;;;;;;;;;;;16.47;57.33;99884.88;5077033;28;1391;-50
2022/09/16 01:11:35;;;;;;;;;;;;;;;16.40;57.39;99883.28;5076947;28;1421;-51
2022/09/16 01:14:52;;;;;;;;;;;;;;;16.41;57.14;99879.44;5077164;28;1096;-52
2022/09/16 01:16:56;;;;;;;;;;;;;;;16.36;56.96;99882.25;5077075;28;2416;-52
2022/09/16 01:19:31;;;;;;;;;;;;;;;16.36;56.86;99879.50;5046259;28;1135;-52
2022/09/16 01:22:15;;;;;;;;;;;;;;;16.32;56.89;99885.88;5076509;28;1080;-52
2022/09/16 01:24:50;;;;;;;;;;;;;;;16.28;57.03;99882.88;5065170;28;1980;-52
2022/09/16 01:27:24;;;;;;;;;;;;;;;16.22;56.76;99886.81;5077051;28;1181;-51
2022/09/16 01:29:57;;;;;;;;;;;;;;;16.22;56.82;99884.88;5076567;28;1151;-50
2022/09/16 01:32:27;;;;;;;;;;;;;;;17.08;57.23;99875.78;5059271;28;1183;-51
2022/09/16 01:34:52;;;;;;;;;;;;;;;17.39;57.44;99886.28;5058670;28;863;-52
2022/09/16 01:37:38;;;;;;;;;;;;;;;16.84;58.16;99886.00;5076949;28;1178;-52
2022/09/16 01:40:22;;;;;;;;;;;;;;;16.71;57.91;99871.91;5057272;28;1869;-50
2022/09/16 01:43:06;;;;;;;;;;;;;;;16.57;57.62;99863.56;5077004;28;1154;-52
2022/09/16 01:45:42;;;;;;;;;;;;;;;16.49;57.74;99868.91;5076872;28;1973;-53
2022/09/16 01:48:08;;;;;;;;;;;;;;;16.43;57.46;99863.50;5053759;28;2554;-52
2022/09/16 01:50:40;;;;;;;;;;;;;;;16.41;57.18;99864.88;5075868;28;1182;-53
2022/09/16 01:53:18;;;;;;;;;;;;;;;16.35;57.13;99869.63;5076610;28;1182;-51
2022/09/16 01:55:47;;;;;;;;;;;;;;;16.28;56.86;99869.16;5046605;28;1061;-52
2022/09/16 01:58:25;;;;;;;;;;;;;;;16.22;56.74;99870.34;5076147;28;1229;-52
2022/09/16 02:00:50;;;;;;;;;;;;;;;16.59;57.45;99857.78;5058289;28;1111;-52
2022/09/16 02:03:18;;;;;;;;;;;;;;;17.60;56.71;99866.69;5076579;28;1143;-50
2022/09/16 02:05:47;;;;;;;;;;;;;;;16.90;58.07;99871.09;5044740;28;1984;-52
2022/09/16 02:08:14;;;;;;;;;;;;;;;16.75;58.04;99872.94;5058989;28;1159;-52
2022/09/16 02:10:40;;;;;;;;;;;;;;;16.63;57.87;99877.25;5058066;28;1159;-53
2022/09/16 02:13:32;;;;;;;;;;;;;;;16.57;57.51;99874.56;5058277;28;1136;-52
2022/09/16 02:15:59;;;;;;;;;;;;;;;16.51;57.29;99873.00;5059202;28;1245;-54
2022/09/16 02:18:26;;;;;;;;;;;;;;;16.45;57.37;99874.16;5058321;28;2541;-53
2022/09/16 02:20:52;;;;;;;;;;;;;;;16.40;57.02;99866.81;5057984;28;1116;-54
2022/09/16 02:23:18;;;;;;;;;;;;;;;16.38;57.13;99868.22;5057928;28;904;-52
2022/09/16 02:25:44;;;;;;;;;;;;;;;16.27;57.04;99873.06;5057995;28;1985;-54
2022/09/16 02:28:11;;;;;;;;;;;;;;;16.32;56.99;99864.72;5058361;28;1203;-53
2022/09/16 02:30:38;;;;;;;;;;;;;;;16.28;56.96;99869.16;5057924;28;1159;-54
2022/09/16 02:33:05;;;;;;;;;;;;;;;16.26;57.04;99860.44;5076166;28;1095;-53
2022/09/16 02:35:30;;;;;;;;;;;;;;;16.23;56.70;99870.06;5057979;28;1147;-54
2022/09/16 02:37:57;;;;;;;;;;;;;;;16.23;57.33;99872.81;5058253;28;1234;-54
2022/09/16 02:40:28;;;;;;;;;;;;;;;17.54;56.75;99870.63;5057922;28;1135;-54
2022/09/16 02:42:55;;;;;;;;;;;;;;;16.88;57.94;99879.63;5075807;28;1332;-54
2022/09/16 02:45:21;;;;;;;;;;;;;;;16.70;57.86;99883.16;5069764;28;1906;-54
2022/09/16 02:47:52;;;;;;;;;;;;;;;16.57;57.86;99877.31;5067833;28;2203;-54
2022/09/16 02:50:50;;;;;;;;;;;;;;;16.55;57.62;99878.69;5058203;28;1155;-53
2022/09/16 02:53:41;;;;;;;;;;;;;;;16.46;57.21;99875.81;5020438;28;1207;-54
2022/09/16 02:56:13;;;;;;;;;;;;;;;16.41;57.12;99884.09;5037081;28;1092;-52
2022/09/16 02:58:38;;;;;;;;;;;;;;;16.34;57.08;99881.72;5074823;28;1229;-53
2022/09/16 03:01:04;;;;;;;;;;;;;;;16.30;57.17;99877.09;5076066;28;1080;-48
2022/09/16 03:03:29;;;;;;;;;;;;;;;16.27;57.15;99880.44;5075805;28;1159;-52
2022/09/16 03:06:07;;;;;;;;;;;;;;;16.28;57.03;99873.84;5057699;28;1914;-52
2022/09/16 03:08:33;;;;;;;;;;;;;;;16.21;57.09;99874.19;5075449;28;1226;-54
2022/09/16 03:11:10;;;;;;;;;;;;;;;16.19;56.76;99862.72;5075314;28;1222;-54
2022/09/16 03:14:02;;;;;;;;;;;;;;;16.24;57.13;99859.91;5043436;28;1100;-54
2022/09/16 03:16:36;;;;;;;;;;;;;;;17.57;56.78;99864.50;5070018;28;1080;-53
2022/09/16 03:19:04;;;;;;;;;;;;;;;16.90;57.79;99871.94;5074287;28;1069;-54
2022/09/16 03:21:36;;;;;;;;;;;;;;;16.62;58.06;99876.44;5075683;28;1183;-52
2022/09/16 03:24:17;;;;;;;;;;;;;;;16.58;57.67;99883.63;5052779;28;1215;-46
2022/09/16 03:26:47;;;;;;;;;;;;;;;16.47;57.63;99890.38;5050222;28;1914;-50
2022/09/16 03:29:18;;;;;;;;;;;;;;;16.43;57.44;99885.44;5057723;28;1159;-55
2022/09/16 03:31:46;;;;;;;;;;;;;;;16.40;57.15;99888.78;5075850;28;1405;-54
2022/09/16 03:34:50;;;;;;;;;;;;;;;16.34;57.22;99889.97;5057683;28;1176;-52
2022/09/16 03:37:15;;;;;;;;;;;;;;;16.33;57.10;99888.31;4956189;28;1312;-55
2022/09/16 03:39:41;;;;;;;;;;;;;;;16.57;57.55;99892.97;4947771;29;1161;-55
2022/09/16 03:42:07;;;;;;;;;;;;;;;17.62;56.87;99891.91;4984004;28;1086;-56
2022/09/16 03:44:32;;;;;;;;;;;;;;;16.90;58.31;99896.66;5060432;28;1907;-55
2022/09/16 03:46:58;;;;;;;;;;;;;;;16.75;58.12;99897.63;5078602;28;2344;-55
2022/09/16 03:49:23;;;;;;;;;;;;;;;16.67;57.74;99909.28;5060759;28;1203;-55
2022/09/16 03:51:49;;;;;;;;;;;;;;;16.56;57.54;99903.13;5078874;28;1174;-56
2022/09/16 03:54:14;;;;;;;;;;;;;;;16.50;57.43;99911.72;5069314;28;1132;-56
2022/09/16 03:56:40;;;;;;;;;;;;;;;16.45;57.23;99922.75;5072119;28;1259;-55
2022/09/16 03:59:05;;;;;;;;;;;;;;;16.39;57.43;99920.06;5076500;28;1461;-55
2022/09/16 04:01:30;;;;;;;;;;;;;;;16.44;57.81;99916.47;5078119;28;1019;-57
2022/09/16 04:03:56;;;;;;;;;;;;;;;16.42;57.74;99918.66;5068982;28;1236;-56
2022/09/16 04:06:21;;;;;;;;;;;;;;;16.35;57.80;99916.28;5074842;28;1890;-56
2022/09/16 04:08:49;;;;;;;;;;;;;;;16.38;57.81;99918.44;5071751;28;1108;-56
2022/09/16 04:11:14;;;;;;;;;;;;;;;16.38;57.84;99920.34;5078635;28;1191;-57
2022/09/16 04:13:40;;;;;;;;;;;;;;;16.30;57.81;99926.50;5078261;28;1194;-63
2022/09/16 04:16:05;;;;;;;;;;;;;;;16.42;57.83;99913.19;5078785;28;1115;-59
2022/09/16 04:18:31;;;;;;;;;;;;;;;17.61;58.17;99920.53;5078354;28;2503;-58
2022/09/16 04:20:57;;;;;;;;;;;;;;;16.96;59.03;99927.59;5078401;28;1225;-61
2022/09/16 04:23:24;;;;;;;;;;;;;;;16.73;58.61;99924.59;5074087;28;1152;-58
2022/09/16 04:25:56;;;;;;;;;;;;;;;16.58;58.29;99919.31;5075727;28;1922;-56
2022/09/16 04:28:21;;;;;;;;;;;;;;;16.56;58.12;99929.75;5078056;28;1124;-53
2022/09/16 04:30:47;;;;;;;;;;;;;;;16.50;58.00;99930.94;5077790;28;1131;-57
2022/09/16 04:33:12;;;;;;;;;;;;;;;16.42;57.68;99925.00;5078493;28;1128;-59
2022/09/16 04:35:38;;;;;;;;;;;;;;;16.41;57.52;99926.09;5073852;28;1202;-58
2022/09/16 04:38:04;;;;;;;;;;;;;;;16.38;57.54;99925.84;5075051;28;1215;-56
2022/09/16 04:40:29;;;;;;;;;;;;;;;16.33;57.33;99920.44;5077685;28;1149;-57
2022/09/16 04:42:54;;;;;;;;;;;;;;;16.29;57.48;99920.19;5077807;28;1154;-59
2022/09/16 04:45:20;;;;;;;;;;;;;;;16.25;57.20;99930.13;5071325;28;1905;-57
2022/09/16 04:47:46;;;;;;;;;;;;;;;16.16;57.23;99927.22;5069253;28;2352;-56
2022/09/16 04:50:11;;;;;;;;;;;;;;;16.16;57.11;99920.88;5075282;28;1242;-53
2022/09/16 04:52:36;;;;;;;;;;;;;;;16.13;57.15;99921.47;5077664;28;968;-55
2022/09/16 04:55:02;;;;;;;;;;;;;;;16.39;57.95;99920.06;5077187;28;1378;-58
2022/09/16 04:57:33;;;;;;;;;;;;;;;17.63;57.61;99923.81;5077559;28;1222;-57
2022/09/16 04:59:58;;;;;;;;;;;;;;;16.89;58.94;99927.16;5077013;28;1179;-59
2022/09/16 05:02:24;;;;;;;;;;;;;;;16.70;58.31;99918.84;5077116;28;1111;-57
2022/09/16 05:04:49;;;;;;;;;;;;;;;16.54;58.19;99921.81;5063864;28;1909;-56
2022/09/16 05:07:15;;;;;;;;;;;;;;;16.49;58.12;99926.53;5076577;28;1298;-57
2022/09/16 05:09:42;;;;;;;;;;;;;;;16.41;57.85;99928.84;5077667;28;1179;-59
2022/09/16 05:12:07;;;;;;;;;;;;;;;16.35;57.78;99920.94;5076813;28;1076;-56
2022/09/16 05:14:33;;;;;;;;;;;;;;;16.36;57.50;99925.34;5076643;28;1155;-55
2022/09/16 05:16:58;;;;;;;;;;;;;;;16.29;57.60;99924.88;5077183;28;2252;-56
2022/09/16 05:19:24;;;;;;;;;;;;;;;16.25;57.53;99924.63;5076673;28;1174;-56
2022/09/16 05:21:49;;;;;;;;;;;;;;;16.23;57.31;99932.34;5076751;28;1123;-57
2022/09/16 05:24:14;;;;;;;;;;;;;;;16.15;57.65;99930.25;5074588;28;1139;-56
2022/09/16 05:26:43;;;;;;;;;;;;;;;16.20;57.41;99921.94;5076714;28;1902;-56
2022/09/16 05:29:13;;;;;;;;;;;;;;;16.70;57.83;99925.16;5076319;28;1151;-56
2022/09/16 05:31:39;;;;;;;;;;;;;;;17.49;57.60;99912.75;5076554;28;1182;-58
2022/09/16 05:34:12;;;;;;;;;;;;;;;16.91;58.76;99914.75;5076299;28;1218;-58
2022/09/16 05:36:38;;;;;;;;;;;;;;;16.70;58.73;99916.91;5076358;28;877;-57
2022/09/16 05:39:04;;;;;;;;;;;;;;;16.62;58.28;99912.13;5076100;28;1554;-56
2022/09/16 05:41:29;;;;;;;;;;;;;;;17.42;57.57;99918.63;5076437;28;1111;-58
2022/09/16 05:43:57;;;;;;;;;;;;;;;17.05;56.22;99919.50;5071557;28;1347;-59
2022/09/16 05:46:23;;;;;;;;;;;;;;;16.86;54.32;99919.47;5066969;28;1901;-63
2022/09/16 05:48:49;;;;;;;;;;;;;;;16.68;52.98;99921.91;5072533;28;2642;-56
2022/09/16 05:51:15;;;;;;;;;;;;;;;16.58;52.20;99922.06;5076406;28;1205;-58
2022/09/16 05:53:41;;;;;;;;;;;;;;;16.66;51.37;99928.78;5074940;28;1143;-58
2022/09/16 05:56:10;;;;;;;;;;;;;;;16.60;51.13;99930.78;5070747;28;1263;-59
2022/09/16 05:58:35;;;;;;;;;;;;;;;17.31;53.37;99921.88;5074622;28;1258;-58
2022/09/16 06:01:04;;;;;;;;;;;;;;;16.89;52.83;99922.47;5068184;28;971;-55
2022/09/16 06:03:30;;;;;;;;;;;;;;;16.85;51.71;99928.81;5069067;28;1211;-55
2022/09/16 06:06:02;;;;;;;;;;;;;;;16.87;50.95;99935.66;5059509;28;1901;-60
2022/09/16 06:08:31;;;;;;;;;;;;;;;16.82;50.21;99937.66;5070850;28;1243;-60
2022/09/16 06:10:59;;;;;;;;;;;;;;;17.53;52.03;99937.69;5073311;28;1424;-64
2022/09/16 06:13:24;;;;;;;;;;;;;;;17.19;52.63;99933.28;5072955;28;1152;-60
2022/09/16 06:15:50;;;;;;;;;;;;;;;16.99;51.84;99937.19;5076144;28;1163;-58
2022/09/16 06:18:17;;;;;;;;;;;;;;;17.00;50.85;99928.63;5075996;28;1203;-57
2022/09/16 06:20:43;;;;;;;;;;;;;;;16.88;50.20;99930.97;5076235;28;1143;-59
2022/09/16 06:23:08;;;;;;;;;;;;;;;16.89;49.88;99932.66;5074064;28;1309;-57
2022/09/16 06:25:34;;;;;;;;;;;;;;;16.91;49.57;99939.47;5072537;28;2209;-57
2022/09/16 06:27:59;;;;;;;;;;;;;;;16.91;49.28;99942.22;5060533;28;1223;-60
2022/09/16 06:30:25;;;;;;;;;;;;;;;16.85;49.31;99931.56;5070614;28;1132;-58
2022/09/16 06:32:50;;;;;;;;;;;;;;;16.88;48.73;99931.81;5075962;28;1147;-59
2022/09/16 06:35:16;;;;;;;;;;;;;;;16.89;48.69;99932.66;5076543;28;1186;-58
2022/09/16 06:37:41;;;;;;;;;;;;;;;16.87;48.67;99941.16;5072742;28;1191;-58
2022/09/16 06:40:07;;;;;;;;;;;;;;;16.84;48.65;99935.41;5069341;28;1170;-62
2022/09/16 06:42:32;;;;;;;;;;;;;;;16.87;48.55;99932.06;5069221;28;1139;-62
2022/09/16 06:45:03;;;;;;;;;;;;;;;16.88;48.23;99936.47;5058124;28;1977;-63
2022/09/16 06:47:29;;;;;;;;;;;;;;;16.88;48.38;99947.44;5076092;28;1234;-61
2022/09/16 06:49:55;;;;;;;;;;;;;;;16.92;48.11;99937.53;5075333;28;1187;-60
2022/09/16 06:52:21;;;;;;;;;;;;;;;16.89;48.14;99946.38;5076157;28;1206;-60
2022/09/16 06:54:46;;;;;;;;;;;;;;;17.57;50.23;99946.97;5075994;28;1147;-60
2022/09/16 06:57:12;;;;;;;;;;;;;;;17.24;50.28;99955.22;5075592;28;1198;-58
2022/09/16 06:59:37;;;;;;;;;;;;;;;17.14;49.68;99960.84;5074942;28;946;-56
2022/09/16 07:02:03;;;;;;;;;;;;;;;17.09;49.03;99956.25;5074106;28;899;-59
2022/09/16 07:04:28;;;;;;;;;;;;;;;17.16;48.61;99953.13;5065266;28;1974;-61
2022/09/16 07:06:56;;;;;;;;;;;;;;;17.08;48.52;99947.19;5063914;28;1252;-60
2022/09/16 07:09:22;;;;;;;;;;;;;;;17.03;48.44;99955.50;5062132;28;1065;-56
2022/09/16 07:11:47;;;;;;;;;;;;;;;17.08;48.49;99962.84;5068172;28;1371;-58
2022/09/16 07:14:13;;;;;;;;;;;;;;;17.14;47.88;99958.09;5066326;28;1031;-59
2022/09/16 07:16:38;;;;;;;;;;;;;;;17.07;48.00;99956.53;5072444;28;1190;-59
2022/09/16 07:19:04;;;;;;;;;;;;;;;17.12;47.90;99958.38;5079657;28;1147;-55
2022/09/16 07:21:29;;;;;;;;;;;;;;;17.06;48.02;99954.91;5076607;28;1211;-59
2022/09/16 07:23:56;;;;;;;;;;;;;;;17.03;47.85;99958.25;5077638;28;1233;-60
2022/09/16 07:26:25;;;;;;;;;;;;;;;17.08;47.99;99946.34;5059092;28;1910;-59
2022/09/16 07:28:51;;;;;;;;;;;;;;;17.03;47.95;99949.19;5078267;28;1140;-58
2022/09/16 07:31:26;;;;;;;;;;;;;;;17.05;48.05;99947.75;5078812;28;1040;-58
2022/09/16 07:33:53;;;;;;;;;;;;;;;17.05;47.91;99958.75;5078956;28;1107;-58
2022/09/16 07:36:19;;;;;;;;;;;;;;;16.97;47.97;99939.38;5078668;28;1112;-56
2022/09/16 07:38:45;;;;;;;;;;;;;;;17.06;48.08;99956.84;5077894;28;955;-59
2022/09/16 07:41:11;;;;;;;;;;;;;;;17.09;47.84;99950.75;5078448;28;1187;-60
2022/09/16 07:43:37;;;;;;;;;;;;;;;17.03;47.82;99944.50;5077940;28;1104;-59
2022/09/16 07:46:03;;;;;;;;;;;;;;;17.04;47.93;99957.16;5077365;28;1914;-62
2022/09/16 07:48:29;;;;;;;;;;;;;;;17.03;48.10;99943.72;5079064;28;1353;-57
2022/09/16 07:50:57;;;;;;;;;;;;;;;17.04;47.98;99946.16;5065122;28;1030;-56
2022/09/16 07:53:23;;;;;;;;;;;;;;;17.18;47.97;99953.63;5076231;28;1488;-62
2022/09/16 07:55:49;;;;;;;;;;;;;;;17.12;48.10;99949.34;5059717;28;1075;-60
2022/09/16 07:58:14;;;;;;;;;;;;;;;17.08;48.11;99954.59;5060902;28;1120;-57
2022/09/16 08:00:41;;;;;;;;;;;;;;;17.20;47.71;99956.91;5074633;28;1167;-58
2022/09/16 08:03:07;;;;;;;;;;;;;;;17.12;47.84;99958.38;5078551;28;1047;-59
2022/09/16 08:05:32;;;;;;;;;;;;;;;17.17;47.52;99960.25;5078704;28;1917;-58
2022/09/16 08:07:58;;;;;;;;;;;;;;;17.17;47.74;99955.56;5078844;28;1135;-55
2022/09/16 08:10:23;;;;;;;;;;;;;;;17.15;47.86;99955.03;5078519;28;1175;-64
2022/09/16 08:12:49;;;;;;;;;;;;;;;17.18;47.73;99950.88;5077364;28;1222;-59
2022/09/16 08:15:14;;;;;;;;;;;;;;;17.10;47.79;99955.94;5071033;28;1123;-60
2022/09/16 08:17:40;;;;;;;;;;;;;;;17.15;47.66;99951.50;5075977;28;1163;-59
2022/09/16 08:20:06;;;;;;;;;;;;;;;17.18;47.91;99945.38;5077478;28;1127;-62
2022/09/16 08:22:31;;;;;;;;;;;;;;;17.17;47.85;99949.28;5077582;28;1213;-57
2022/09/16 08:24:57;;;;;;;;;;;;;;;17.16;47.75;99947.63;5077806;28;1905;-63
2022/09/16 08:27:22;;;;;;;;;;;;;;;17.15;47.74;99946.00;5078276;28;1159;-54
2022/09/16 08:29:47;;;;;;;;;;;;;;;17.17;47.94;99941.03;5076646;28;1135;-59
2022/09/16 08:32:13;;;;;;;;;;;;;;;17.21;47.60;99937.38;5077885;28;1174;-55
2022/09/16 08:34:39;;;;;;;;;;;;;;;17.17;47.84;99938.28;5078385;28;1198;-57
2022/09/16 08:37:04;;;;;;;;;;;;;;;17.19;48.03;99941.53;5073197;28;1230;-63
2022/09/16 08:39:30;;;;;;;;;;;;;;;17.25;47.53;99937.59;5069031;28;1297;-60
2022/09/16 08:41:59;;;;;;;;;;;;;;;17.18;47.83;99942.66;5076197;28;1281;-58
2022/09/16 08:44:37;;;;;;;;;;;;;;;17.24;48.14;99933.22;5076064;28;1066;-58
2022/09/16 08:47:05;;;;;;;;;;;;;;;17.29;47.99;99924.88;5052132;28;1314;-58
2022/09/16 08:49:43;;;;;;;;;;;;;;;17.31;47.97;99930.91;5061256;28;1202;-59
2022/09/16 08:52:23;;;;;;;;;;;;;;;17.25;47.92;99912.84;5059749;28;1222;-58
2022/09/16 08:54:49;;;;;;;;;;;;;;;17.20;47.90;99932.19;5059679;28;1372;-60
2022/09/16 08:57:19;;;;;;;;;;;;;;;17.28;47.85;99923.28;5077571;28;1005;-60
2022/09/16 08:59:48;;;;;;;;;;;;;;;17.30;47.66;99920.22;5076843;28;1146;-60
2022/09/16 09:02:23;;;;;;;;;;;;;;;17.27;47.64;99932.63;5049124;28;981;-60
2022/09/16 09:04:48;;;;;;;;;;;;;;;17.23;48.02;99934.34;5072652;28;1906;-61
2022/09/16 09:07:14;;;;;;;;;;;;;;;17.32;47.61;99939.97;5077619;28;1178;-59
2022/09/16 09:09:47;;;;;;;;;;;;;;;17.30;47.75;99937.53;5077189;28;1270;-58
2022/09/16 09:12:19;;;;;;;;;;;;;;;17.30;48.16;99937.53;5061793;28;2581;-59
2022/09/16 09:15:05;;;;;;;;;;;;;;;17.27;48.28;99924.38;5052523;28;850;-63
2022/09/16 09:17:43;;;;;;;;;;;;;;;17.28;48.04;99912.28;5051042;28;1428;-59
2022/09/16 09:20:13;;;;;;;;;;;;;;;17.30;47.93;99915.53;5077063;28;1144;-60
2022/09/16 09:22:42;;;;;;;;;;;;;;;17.24;47.93;99917.56;5051792;28;1294;-57
2022/09/16 09:25:21;;;;;;;;;;;;;;;17.27;47.79;99916.13;5075008;28;1960;-56
2022/09/16 09:28:01;;;;;;;;;;;;;;;17.30;47.98;99915.53;5066464;28;1221;-56
2022/09/16 09:30:27;;;;;;;;;;;;;;;17.33;47.78;99923.19;5076737;28;1421;-57
2022/09/16 09:32:57;;;;;;;;;;;;;;;17.32;47.95;99927.06;5076672;28;1120;-56
2022/09/16 09:35:46;;;;;;;;;;;;;;;17.38;47.82;99927.78;5058581;28;1084;-56
2022/09/16 09:38:30;;;;;;;;;;;;;;;17.42;47.64;99934.31;5059110;28;1104;-56
2022/09/16 09:41:03;;;;;;;;;;;;;;;17.33;48.18;99931.41;5075025;28;1389;-56
2022/09/16 09:43:30;;;;;;;;;;;;;;;17.35;47.90;99923.72;5056825;28;1167;-56
2022/09/16 09:46:01;;;;;;;;;;;;;;;17.31;48.14;99917.19;5071879;28;1906;-55
2022/09/16 09:48:37;;;;;;;;;;;;;;;17.41;47.80;99924.44;5059151;28;1135;-55
2022/09/16 09:51:21;;;;;;;;;;;;;;;17.40;47.90;99925.53;5067514;28;953;-56
2022/09/16 09:53:49;;;;;;;;;;;;;;;17.39;47.42;99919.25;5075346;28;1246;-57
2022/09/16 09:56:20;;;;;;;;;;;;;;;17.42;47.64;99918.63;5046543;28;1466;-53
2022/09/16 09:59:06;;;;;;;;;;;;;;;17.43;47.75;99919.44;5059578;28;1049;-55
2022/09/16 10:01:31;;;;;;;;;;;;;;;17.45;47.66;99929.03;5042687;28;1397;-55
2022/09/16 10:03:58;;;;;;;;;;;;;;;17.42;47.70;99917.84;5074469;28;1150;-56
2022/09/16 10:06:33;;;;;;;;;;;;;;;17.43;47.61;99920.28;5038244;28;1975;-56
2022/09/16 10:08:58;;;;;;;;;;;;;;;17.42;47.48;99907.66;5043725;28;1203;-53
2022/09/16 10:11:29;;;;;;;;;;;;;;;17.47;47.67;99914.97;5062989;28;1522;-54
2022/09/16 10:13:58;;;;;;;;;;;;;;;17.42;47.82;99910.41;5059086;28;1239;-55
2022/09/16 10:16:25;;;;;;;;;;;;;;;17.43;47.67;99908.44;5065593;28;1235;-55
2022/09/16 10:18:55;;;;;;;;;;;;;;;17.43;47.49;99914.78;5051116;28;1215;-55
2022/09/16 10:21:21;;;;;;;;;;;;;;;17.40;47.92;99915.38;5050928;28;1113;-59
2022/09/16 10:23:56;;;;;;;;;;;;;;;17.42;47.91;99915.88;5069122;28;1394;-56
2022/09/16 10:26:22;;;;;;;;;;;;;;;17.49;47.79;99918.25;5073520;28;2082;-59
2022/09/16 10:28:54;;;;;;;;;;;;;;;17.49;47.74;99929.25;5075933;28;1241;-60
2022/09/16 10:31:19;;;;;;;;;;;;;;;17.40;47.76;99920.88;5066746;28;1203;-60
2022/09/16 10:33:45;;;;;;;;;;;;;;;17.49;47.59;99914.69;5038142;28;1287;-59
2022/09/16 10:36:16;;;;;;;;;;;;;;;17.41;47.63;99917.00;5064045;28;1203;-61
2022/09/16 10:38:45;;;;;;;;;;;;;;;17.45;47.82;99915.28;5073909;28;1170;-58
2022/09/16 10:41:18;;;;;;;;;;;;;;;17.50;47.71;99913.56;5049601;28;1488;-58
2022/09/16 10:43:48;;;;;;;;;;;;;;;17.55;47.36;99906.03;5055300;28;1472;-58
2022/09/16 10:46:14;;;;;;;;;;;;;;;17.45;47.73;99908.97;5069139;28;2004;-56
2022/09/16 10:48:40;;;;;;;;;;;;;;;17.52;47.46;99903.91;5062420;28;1188;-59
2022/09/16 10:51:05;;;;;;;;;;;;;;;17.53;47.54;99910.22;5075105;28;1172;-55
2022/09/16 10:53:31;;;;;;;;;;;;;;;17.68;47.04;99915.44;5061357;28;1124;-57
2022/09/16 10:56:00;;;;;;;;;;;;;;;17.55;47.50;99911.53;5070607;28;1277;-57
2022/09/16 10:58:26;;;;;;;;;;;;;;;17.61;47.41;99917.78;5074704;28;1444;-57
2022/09/16 11:00:57;;;;;;;;;;;;;;;17.52;47.47;99911.34;5076292;28;1428;-57
2022/09/16 11:03:52;;;;;;;;;;;;;;;17.52;47.72;99928.66;5055858;28;1112;-58
2022/09/16 11:06:17;;;;;;;;;;;;;;;17.65;47.26;99915.25;5055927;28;1909;-57
2022/09/16 11:08:49;;;;;;;;;;;;;;;17.57;47.55;99909.31;5065538;28;1185;-57
2022/09/16 11:11:37;;;;;;;;;;;;;;;17.60;47.50;99910.66;5074991;28;1072;-56
2022/09/16 11:14:05;;;;;;;;;;;;;;;17.60;47.56;99899.66;5069950;28;1446;-59
2022/09/16 11:16:40;;;;;;;;;;;;;;;17.57;47.40;99900.25;5073434;28;1120;-60
2022/09/16 11:19:29;;;;;;;;;;;;;;;17.53;47.84;99899.22;5080037;28;1163;-59
2022/09/16 11:22:08;;;;;;;;;;;;;;;17.56;47.81;99909.63;5066143;28;1480;-60
2022/09/16 11:24:52;;;;;;;;;;;;;;;17.62;47.70;99906.47;5061807;28;1337;-59
2022/09/16 11:27:25;;;;;;;;;;;;;;;17.60;47.77;99913.41;5076110;28;1155;-56
2022/09/16 11:29:56;;;;;;;;;;;;;;;17.62;47.57;99905.66;5079573;28;1107;-56
2022/09/16 11:32:41;;;;;;;;;;;;;;;17.58;47.66;99910.94;5056373;28;1057;-60
2022/09/16 11:35:06;;;;;;;;;;;;;;;17.70;47.58;99902.22;5074019;28;1072;-58
2022/09/16 11:37:37;;;;;;;;;;;;;;;17.66;47.48;99900.38;5077614;28;1225;-59
2022/09/16 11:40:06;;;;;;;;;;;;;;;17.73;47.63;99900.81;5057525;28;888;-58
2022/09/16 11:42:31;;;;;;;;;;;;;;;17.58;47.73;99896.38;5079007;28;1163;-58
2022/09/16 11:45:00;;;;;;;;;;;;;;;17.74;47.16;99886.75;5074432;28;1967;-57
2022/09/16 11:47:48;;;;;;;;;;;;;;;17.63;47.36;99879.81;5078968;28;1243;-57
2022/09/16 11:50:23;;;;;;;;;;;;;;;17.67;47.62;99872.59;5047693;28;1600;-58
2022/09/16 11:52:53;;;;;;;;;;;;;;;17.64;47.60;99869.63;5070659;28;1171;-56
2022/09/16 11:55:28;;;;;;;;;;;;;;;17.65;47.66;99872.06;5061333;28;1179;-61
2022/09/16 11:58:13;;;;;;;;;;;;;;;17.51;48.13;99871.22;5078506;28;1127;-65
2022/09/16 12:00:39;;;;;;;;;;;;;;;15.70;52.89;99870.91;5064225;28;1581;-63
2022/09/16 12:03:23;;;;;;;;;;;;;;;17.12;49.82;99858.69;5054627;28;1314;-65
2022/09/16 12:05:52;;;;;;;;;;;;;;;17.07;51.26;99856.84;5069754;28;1902;-63
2022/09/16 12:08:22;;;;;;;;;;;;;;;17.30;51.50;99849.59;5054218;28;1401;-63
2022/09/16 12:10:52;;;;;;;;;;;;;;;17.43;51.44;99854.31;5074718;28;1266;-65
2022/09/16 12:13:18;;;;;;;;;;;;;;;17.24;52.20;99857.09;5059841;28;1271;-62
2022/09/16 12:15:47;;;;;;;;;;;;;;;15.15;57.74;99860.16;5070272;28;1081;-63
2022/09/16 12:18:17;;;;;;;;;;;;;;;17.04;51.96;99855.53;5061112;28;1203;-58
2022/09/16 12:20:44;;;;;;;;;;;;;;;17.47;51.17;99845.47;5059924;28;1119;-63
2022/09/16 12:23:28;;;;;;;;;;;;;;;16.80;52.68;99846.53;5078458;28;1171;-59
2022/09/16 12:25:56;;;;;;;;;;;;;;;15.96;54.88;99850.63;5078353;28;1901;-60
2022/09/16 12:28:28;;;;;;;;;;;;;;;17.04;51.39;99843.69;5077969;28;911;-60
2022/09/16 12:31:03;;;;;;;;;;;;;;;17.24;50.33;99859.03;5060009;28;1186;-59
2022/09/16 12:33:32;;;;;;;;;;;;;;;17.21;49.90;99851.41;5041250;28;1232;-61
2022/09/16 12:36:02;;;;;;;;;;;;;;;17.34;49.62;99839.63;5060267;28;1167;-59
2022/09/16 12:38:28;;;;;;;;;;;;;;;17.31;49.32;99834.75;5060448;28;1202;-61
2022/09/16 12:41:05;;;;;;;;;;;;;;;17.40;48.98;99835.69;5070166;28;1294;-60
2022/09/16 12:43:46;;;;;;;;;;;;;;;17.55;48.52;99840.06;5065088;28;1077;-58
2022/09/16 12:46:33;;;;;;;;;;;;;;;17.51;48.52;99832.75;5077871;28;1909;-58
2022/09/16 12:49:05;;;;;;;;;;;;;;;17.50;48.17;99831.94;5066140;28;1166;-55
2022/09/16 12:51:49;;;;;;;;;;;;;;;17.57;48.04;99826.88;5077320;28;1123;-54
2022/09/16 12:54:21;;;;;;;;;;;;;;;17.60;48.08;99822.69;5077858;28;1242;-56
2022/09/16 12:57:05;;;;;;;;;;;;;;;17.69;48.08;99828.31;5077439;28;1237;-52
2022/09/16 12:59:49;;;;;;;;;;;;;;;17.68;48.43;99816.47;5077829;28;1135;-53
2022/09/16 13:02:15;;;;;;;;;;;;;;;17.71;48.22;99813.13;5077595;28;1131;-50
2022/09/16 13:04:47;;;;;;;;;;;;;;;17.67;48.13;99830.53;5059326;28;1124;-53
2022/09/16 13:07:19;;;;;;;;;;;;;;;17.62;47.99;99823.19;5059427;28;1125;-55
2022/09/16 13:09:46;;;;;;;;;;;;;;;17.67;48.14;99812.09;5077589;28;1139;-56